createdAt,value
2023-03-11T00:00:44.339Z,62.62
2023-03-11T00:03:14.006Z,62.11
2023-03-11T00:05:42.603Z,61.29
2023-03-11T00:08:13.076Z,62.83
2023-03-11T00:10:41.919Z,62.58
2023-03-11T00:13:10.387Z,62.14
2023-03-11T00:15:38.071Z,61.01
2023-03-11T00:18:06.078Z,60.86
2023-03-11T00:20:35.856Z,60.55
2023-03-11T00:23:03.844Z,61.58
2023-03-11T00:25:31.988Z,60.83
2023-03-11T00:27:59.454Z,60.68
2023-03-11T00:30:26.893Z,59.97
2023-03-11T00:32:55.768Z,59.94
2023-03-11T00:35:24.900Z,59.55
2023-03-11T00:37:57.358Z,58.67
2023-03-11T00:40:25.778Z,58.37
2023-03-11T00:42:53.178Z,57.78
2023-03-11T00:45:20.747Z,58.74
2023-03-11T00:47:48.458Z,58.03
2023-03-11T00:50:21.021Z,57.04
2023-03-11T00:52:48.909Z,56.80
2023-03-11T00:55:18.905Z,57.92
2023-03-11T00:57:46.269Z,56.46
2023-03-11T01:00:16.257Z,56.72
2023-03-11T01:02:43.777Z,56.08
2023-03-11T01:05:11.251Z,55.08
2023-03-11T01:07:38.851Z,56.18
2023-03-11T01:10:07.538Z,55.56
2023-03-11T01:12:34.883Z,56.12
2023-03-11T01:15:03.106Z,56.23
2023-03-11T01:17:30.499Z,56.24
2023-03-11T01:19:57.912Z,55.50
2023-03-11T01:22:25.532Z,56.11
2023-03-11T01:24:52.863Z,56.65
2023-03-11T01:27:20.209Z,56.54
2023-03-11T01:29:47.827Z,57.49
2023-03-11T01:32:15.361Z,57.20
2023-03-11T01:34:42.744Z,57.67
2023-03-11T01:37:10.350Z,58.40
2023-03-11T01:39:37.790Z,58.10
2023-03-11T01:42:05.383Z,58.03
2023-03-11T01:44:33.013Z,58.30
2023-03-11T01:47:02.125Z,58.46
2023-03-11T01:49:29.693Z,56.62
2023-03-11T01:51:59.797Z,56.77
2023-03-11T01:54:28.512Z,56.03
2023-03-11T01:56:55.969Z,57.96
2023-03-11T01:59:25.364Z,57.38
2023-03-11T02:02:02.493Z,56.89
2023-03-11T02:04:30.163Z,57.97
2023-03-11T02:06:57.511Z,57.52
2023-03-11T02:09:27.102Z,58.21
2023-03-11T02:11:54.879Z,57.36
2023-03-11T02:14:22.436Z,57.32
2023-03-11T02:16:50.002Z,56.76
2023-03-11T02:19:30.426Z,56.23
2023-03-11T02:21:58.212Z,57.05
2023-03-11T02:24:25.789Z,56.78
2023-03-11T02:26:56.512Z,56.46
2023-03-11T02:29:24.505Z,57.15
2023-03-11T02:31:52.453Z,56.00
2023-03-11T02:34:30.830Z,56.31
2023-03-11T02:36:59.212Z,56.26
2023-03-11T02:39:34.155Z,56.06
2023-03-11T02:42:07.334Z,55.00
2023-03-11T02:44:34.721Z,54.87
2023-03-11T02:47:02.439Z,54.66
2023-03-11T02:49:30.062Z,54.41
2023-03-11T02:51:57.422Z,54.60
2023-03-11T02:54:25.057Z,54.34
2023-03-11T02:56:52.546Z,53.88
2023-03-11T02:59:19.927Z,53.85
2023-03-11T03:01:47.724Z,53.18
2023-03-11T03:04:15.526Z,52.48
2023-03-11T03:06:42.922Z,52.58
2023-03-11T03:09:10.572Z,51.67
2023-03-11T03:11:37.968Z,51.85
2023-03-11T03:14:05.359Z,51.38
2023-03-11T03:16:33.029Z,51.64
2023-03-11T03:19:00.378Z,50.81
2023-03-11T03:21:27.806Z,50.83
2023-03-11T03:23:55.986Z,49.30
2023-03-11T03:26:23.342Z,49.18
2023-03-11T03:28:51.672Z,48.02
2023-03-11T03:31:19.495Z,47.70
2023-03-11T03:33:46.884Z,48.01
2023-03-11T03:36:14.435Z,46.81
2023-03-11T03:38:42.391Z,46.28
2023-03-11T03:41:09.968Z,45.19
2023-03-11T03:43:37.692Z,45.21
2023-03-11T03:46:05.566Z,45.27
2023-03-11T03:48:33.490Z,45.45
2023-03-11T03:51:06.658Z,46.26
2023-03-11T03:53:34.917Z,46.17
2023-03-11T03:56:04.078Z,46.73
2023-03-11T03:58:32.859Z,46.29
2023-03-11T04:01:00.817Z,46.74
2023-03-11T04:03:28.711Z,47.00
2023-03-11T04:06:10.961Z,47.19
2023-03-11T04:08:38.778Z,47.06
2023-03-11T04:11:06.228Z,46.67
2023-03-11T04:13:33.732Z,47.31
2023-03-11T04:16:03.421Z,47.50
2023-03-11T04:18:31.000Z,47.49
2023-03-11T04:20:58.542Z,45.35
2023-03-11T04:23:26.152Z,44.74
2023-03-11T04:25:54.584Z,43.78
2023-03-11T04:28:22.240Z,42.49
2023-03-11T04:30:49.941Z,42.44
2023-03-11T04:33:17.876Z,42.52
2023-03-11T04:35:45.255Z,42.09
2023-03-11T04:38:12.958Z,41.66
2023-03-11T04:40:40.446Z,42.05
2023-03-11T04:43:08.511Z,41.92
2023-03-11T04:45:41.139Z,41.55
2023-03-11T04:48:09.061Z,41.04
2023-03-11T04:50:37.152Z,41.28
2023-03-11T04:53:04.531Z,39.69
2023-03-11T04:55:33.314Z,38.58
2023-03-11T04:58:01.121Z,39.03
2023-03-11T05:00:29.014Z,39.31
2023-03-11T05:02:57.238Z,39.45
2023-03-11T05:05:24.939Z,39.88
2023-03-11T05:07:52.394Z,40.24
2023-03-11T05:10:22.477Z,40.68
2023-03-11T05:12:51.265Z,41.00
2023-03-11T05:15:18.979Z,41.76
2023-03-11T05:17:46.724Z,42.88
2023-03-11T05:20:15.792Z,42.64
2023-03-11T05:22:43.502Z,43.53
2023-03-11T05:25:11.043Z,42.49
2023-03-11T05:27:39.721Z,43.42
2023-03-11T05:30:10.043Z,43.77
2023-03-11T05:32:38.015Z,44.29
2023-03-11T05:35:07.001Z,44.04
2023-03-11T05:37:35.323Z,44.87
2023-03-11T05:40:06.613Z,44.08
2023-03-11T05:42:34.731Z,45.09
2023-03-11T05:45:02.567Z,44.04
2023-03-11T05:47:30.861Z,44.08
2023-03-11T05:49:58.636Z,44.79
2023-03-11T05:52:26.151Z,44.91
2023-03-11T05:54:53.630Z,43.46
2023-03-11T05:57:21.809Z,43.98
2023-03-11T05:59:49.157Z,42.93
2023-03-11T06:02:16.525Z,44.18
2023-03-11T06:04:44.555Z,44.36
2023-03-11T06:07:13.122Z,44.75
2023-03-11T06:09:40.705Z,45.21
2023-03-11T06:12:08.565Z,44.61
2023-03-11T06:14:38.648Z,44.49
2023-03-11T06:17:06.324Z,44.17
2023-03-11T06:19:33.984Z,44.28
2023-03-11T06:22:02.137Z,44.01
2023-03-11T06:24:29.811Z,44.26
2023-03-11T06:26:58.078Z,43.98
2023-03-11T06:29:26.773Z,43.65
2023-03-11T06:31:54.462Z,44.10
2023-03-11T06:34:23.708Z,43.69
2023-03-11T06:36:51.532Z,43.90
2023-03-11T06:39:18.866Z,44.19
2023-03-11T06:41:47.722Z,44.27
2023-03-11T06:44:15.078Z,44.12
2023-03-11T06:46:42.579Z,44.37
2023-03-11T06:49:10.330Z,43.08
2023-03-11T06:51:38.325Z,43.15
2023-03-11T06:54:05.864Z,43.25
2023-03-11T06:56:33.628Z,43.08
2023-03-11T06:59:01.547Z,42.89
2023-03-11T07:01:30.769Z,43.00
2023-03-11T07:03:59.234Z,42.23
2023-03-11T07:06:27.049Z,42.55
2023-03-11T07:08:55.607Z,41.40
2023-03-11T07:11:25.309Z,40.75
2023-03-11T07:13:53.898Z,41.79
2023-03-11T07:16:23.056Z,41.42
2023-03-11T07:18:51.481Z,40.61
2023-03-11T07:21:22.171Z,40.96
2023-03-11T07:23:53.183Z,42.04
2023-03-11T07:26:20.860Z,41.39
2023-03-11T07:28:49.420Z,40.32
2023-03-11T07:31:18.614Z,40.36
2023-03-11T07:33:46.484Z,40.37
2023-03-11T07:36:15.279Z,40.50
2023-03-11T07:38:42.686Z,39.95
2023-03-11T07:41:14.186Z,39.71
2023-03-11T07:43:42.154Z,38.58
2023-03-11T07:46:16.516Z,40.37
2023-03-11T07:48:44.100Z,40.67
2023-03-11T07:51:16.857Z,41.01
2023-03-11T07:53:44.263Z,40.87
2023-03-11T07:56:12.442Z,39.83
2023-03-11T07:58:40.190Z,40.27
2023-03-11T08:01:16.359Z,39.73
2023-03-11T08:03:49.607Z,40.50
2023-03-11T08:06:19.198Z,40.07
2023-03-11T08:08:47.080Z,41.35
2023-03-11T08:11:14.476Z,41.36
2023-03-11T08:13:42.274Z,40.91
2023-03-11T08:16:10.768Z,41.19
2023-03-11T08:18:38.125Z,41.13
2023-03-11T08:21:09.468Z,41.37
2023-03-11T08:23:37.070Z,40.77
2023-03-11T08:26:05.378Z,40.42
2023-03-11T08:28:32.722Z,40.87
2023-03-11T08:31:00.430Z,40.32
2023-03-11T08:33:27.834Z,40.73
2023-03-11T08:35:55.504Z,40.83
2023-03-11T08:38:23.352Z,40.19
2023-03-11T08:40:50.654Z,39.98
2023-03-11T08:43:17.956Z,39.69
2023-03-11T08:45:45.687Z,39.82
2023-03-11T08:48:13.081Z,39.58
2023-03-11T08:50:53.550Z,40.18
2023-03-11T08:53:22.839Z,39.75
2023-03-11T08:55:51.005Z,39.94
2023-03-11T08:58:19.216Z,39.61
2023-03-11T09:00:46.784Z,39.70
2023-03-11T09:03:14.143Z,39.73
2023-03-11T09:05:41.711Z,39.88
2023-03-11T09:08:09.387Z,40.13
2023-03-11T09:10:36.778Z,40.03
2023-03-11T09:13:04.110Z,39.86
2023-03-11T09:15:31.733Z,38.78
2023-03-11T09:17:59.798Z,38.92
2023-03-11T09:20:27.159Z,38.91
2023-03-11T09:22:54.814Z,39.65
2023-03-11T09:25:22.161Z,40.07
2023-03-11T09:27:49.655Z,39.81
2023-03-11T09:30:17.440Z,40.47
2023-03-11T09:32:44.818Z,40.62
2023-03-11T09:35:12.234Z,39.44
2023-03-11T09:37:39.826Z,40.10
2023-03-11T09:40:07.906Z,40.29
2023-03-11T09:42:56.916Z,40.01
2023-03-11T09:45:26.496Z,40.13
2023-03-11T09:48:09.005Z,39.69
2023-03-11T09:50:48.742Z,40.17
2023-03-11T09:53:22.470Z,39.91
2023-03-11T09:55:54.549Z,39.60
2023-03-11T09:58:41.528Z,39.73
2023-03-11T10:01:33.316Z,40.09
2023-03-11T10:04:23.933Z,39.71
2023-03-11T10:06:51.717Z,39.20
2023-03-11T10:09:40.765Z,39.86
2023-03-11T10:12:14.984Z,39.64
2023-03-11T10:15:23.317Z,39.88
2023-03-11T10:18:27.519Z,39.46
2023-03-11T10:21:03.930Z,39.53
2023-03-11T10:23:53.571Z,40.61
2023-03-11T10:26:50.357Z,39.85
2023-03-11T10:29:28.913Z,40.12
2023-03-11T10:32:12.678Z,40.64
2023-03-11T10:34:44.970Z,41.23
2023-03-11T10:37:16.539Z,41.69
2023-03-11T10:39:43.883Z,41.65
2023-03-11T10:42:31.847Z,42.06
2023-03-11T10:44:59.463Z,41.97
2023-03-11T10:47:27.000Z,42.65
2023-03-11T10:49:54.383Z,42.60
2023-03-11T10:52:21.946Z,43.06
2023-03-11T10:54:58.734Z,43.02
2023-03-11T10:57:32.788Z,42.83
2023-03-11T11:00:12.656Z,43.47
2023-03-11T11:02:50.759Z,42.06
2023-03-11T11:05:18.045Z,42.44
2023-03-11T11:07:49.583Z,42.88
2023-03-11T11:10:16.833Z,41.06
2023-03-11T11:12:55.813Z,40.79
2023-03-11T11:15:28.947Z,41.02
2023-03-11T11:17:57.918Z,40.37
2023-03-11T11:20:25.593Z,40.75
2023-03-11T11:22:57.513Z,40.88
2023-03-11T11:25:43.022Z,40.93
2023-03-11T11:28:18.392Z,40.77
2023-03-11T11:30:56.510Z,41.37
2023-03-11T11:33:40.361Z,40.28
2023-03-11T11:36:13.885Z,40.50
2023-03-11T11:38:41.464Z,40.59
2023-03-11T11:41:09.764Z,40.76
2023-03-11T11:43:55.549Z,41.05
2023-03-11T11:46:47.341Z,40.35
2023-03-11T11:49:31.495Z,41.06
2023-03-11T11:52:25.066Z,40.06
2023-03-11T11:55:04.170Z,40.50
2023-03-11T11:57:31.757Z,41.17
2023-03-11T11:59:59.134Z,40.32
2023-03-11T12:03:05.229Z,40.59
2023-03-11T12:05:45.426Z,40.58
2023-03-11T12:08:18.789Z,40.47
2023-03-11T12:11:04.532Z,39.93
2023-03-11T12:13:44.542Z,40.07
2023-03-11T12:16:36.925Z,40.83
2023-03-11T12:19:12.955Z,41.17
2023-03-11T12:22:18.874Z,40.62
2023-03-11T12:25:04.286Z,40.19
2023-03-11T12:27:40.420Z,40.21
2023-03-11T12:30:21.718Z,39.93
2023-03-11T12:32:51.545Z,39.92
2023-03-11T12:35:30.971Z,39.70
2023-03-11T12:38:13.442Z,39.52
2023-03-11T12:40:43.630Z,39.39
2023-03-11T12:43:37.146Z,39.48
2023-03-11T12:46:04.812Z,39.61
2023-03-11T12:48:34.638Z,39.96
2023-03-11T12:51:02.034Z,39.32
2023-03-11T12:53:45.653Z,39.99
2023-03-11T12:56:21.338Z,38.84
2023-03-11T12:59:07.358Z,39.27
2023-03-11T13:01:49.628Z,38.75
2023-03-11T13:05:04.554Z,39.14
2023-03-11T13:07:37.947Z,39.41
2023-03-11T13:10:35.836Z,38.51
2023-03-11T13:13:32.982Z,39.31
2023-03-11T13:16:12.598Z,38.58
2023-03-11T13:18:41.017Z,39.10
2023-03-11T13:21:27.110Z,39.50
2023-03-11T13:24:13.420Z,38.40
2023-03-11T13:26:45.486Z,40.42
2023-03-11T13:29:26.703Z,39.91
2023-03-11T13:32:32.762Z,39.93
2023-03-11T13:35:12.516Z,39.96
2023-03-11T13:37:50.634Z,39.90
2023-03-11T13:40:37.508Z,39.85
2023-03-11T13:43:21.592Z,40.39
2023-03-11T13:46:01.807Z,40.78
2023-03-11T13:48:30.969Z,40.41
2023-03-11T13:51:06.795Z,40.79
2023-03-11T13:53:45.249Z,40.43
2023-03-11T13:56:28.319Z,40.83
2023-03-11T13:59:16.742Z,39.88
2023-03-11T14:01:54.643Z,39.62
2023-03-11T14:04:32.849Z,40.70
2023-03-11T14:07:00.415Z,40.77
2023-03-11T14:09:28.586Z,40.08
2023-03-11T14:12:04.844Z,40.74
2023-03-11T14:14:41.485Z,40.30
2023-03-11T14:17:13.251Z,39.47
2023-03-11T14:19:40.830Z,39.61
2023-03-11T14:22:08.682Z,40.00
2023-03-11T14:24:36.003Z,39.92
2023-03-11T14:27:06.974Z,39.38
2023-03-11T14:29:35.499Z,40.19
2023-03-11T14:32:28.927Z,40.47
2023-03-11T14:34:56.750Z,40.19
2023-03-11T14:37:34.594Z,40.84
2023-03-11T14:40:02.563Z,40.83
2023-03-11T14:42:35.137Z,40.01
2023-03-11T14:45:15.896Z,39.60
2023-03-11T14:48:08.535Z,40.36
2023-03-11T14:50:36.170Z,39.44
2023-03-11T14:53:12.252Z,40.00
2023-03-11T14:55:42.842Z,40.79
2023-03-11T14:58:23.908Z,40.51
2023-03-11T15:01:15.010Z,40.71
2023-03-11T15:03:47.317Z,41.19
2023-03-11T15:06:19.601Z,41.19
2023-03-11T15:08:48.464Z,40.60
2023-03-11T15:11:16.377Z,40.50
2023-03-11T15:13:46.326Z,41.03
2023-03-11T15:16:34.248Z,41.57
2023-03-11T15:19:02.999Z,41.48
2023-03-11T15:21:30.956Z,41.32
2023-03-11T15:24:01.157Z,41.55
2023-03-11T15:26:30.423Z,42.02
2023-03-11T15:29:11.894Z,41.67
2023-03-11T15:31:40.017Z,41.84
2023-03-11T15:34:08.993Z,41.17
2023-03-11T15:36:40.642Z,41.44
2023-03-11T15:39:18.649Z,40.97
2023-03-11T15:41:59.858Z,41.24
2023-03-11T15:44:32.608Z,41.35
2023-03-11T15:47:00.902Z,41.21
2023-03-11T15:49:29.352Z,41.47
2023-03-11T15:52:00.283Z,40.48
2023-03-11T15:54:27.995Z,40.88
2023-03-11T15:56:56.504Z,40.87
2023-03-11T15:59:23.800Z,41.13
2023-03-11T16:01:51.166Z,40.53
2023-03-11T16:04:19.237Z,39.88
2023-03-11T16:06:56.528Z,40.17
2023-03-11T16:09:32.958Z,39.55
2023-03-11T16:12:01.702Z,39.73
2023-03-11T16:14:29.009Z,39.67
2023-03-11T16:16:56.624Z,39.50
2023-03-11T16:19:23.967Z,40.28
2023-03-11T16:21:51.347Z,40.61
2023-03-11T16:24:20.511Z,40.53
2023-03-11T16:26:48.388Z,41.77
2023-03-11T16:29:19.716Z,42.31
2023-03-11T16:31:48.906Z,41.75
2023-03-11T16:34:16.252Z,41.72
2023-03-11T16:36:43.604Z,42.24
2023-03-11T16:39:11.238Z,42.68
2023-03-11T16:41:43.149Z,42.45
2023-03-11T16:44:10.917Z,42.15
2023-03-11T16:46:38.564Z,42.29
2023-03-11T16:49:06.058Z,43.56
2023-03-11T16:51:33.672Z,43.31
2023-03-11T16:54:01.096Z,43.71
2023-03-11T16:56:28.456Z,44.33
2023-03-11T16:58:56.070Z,43.38
2023-03-11T17:01:23.453Z,44.46
2023-03-11T17:03:50.884Z,44.46
2023-03-11T17:06:19.017Z,44.74
2023-03-11T17:08:49.120Z,45.13
2023-03-11T17:11:22.914Z,45.34
2023-03-11T17:13:50.650Z,44.13
2023-03-11T17:16:17.992Z,44.84
2023-03-11T17:18:45.379Z,45.33
2023-03-11T17:21:14.087Z,45.36
2023-03-11T17:23:41.558Z,45.34
2023-03-11T17:26:10.187Z,45.03
2023-03-11T17:28:38.319Z,44.88
2023-03-11T17:31:07.267Z,44.55
2023-03-11T17:33:34.596Z,45.22
2023-03-11T17:36:03.353Z,45.39
2023-03-11T17:38:30.725Z,46.20
2023-03-11T17:40:58.151Z,45.44
2023-03-11T17:43:25.858Z,44.64
2023-03-11T17:45:53.901Z,45.60
2023-03-11T17:48:21.362Z,45.08
2023-03-11T17:50:48.979Z,44.80
2023-03-11T17:53:16.381Z,44.26
2023-03-11T17:55:43.710Z,43.68
2023-03-11T17:58:11.380Z,44.97
2023-03-11T18:00:38.745Z,45.14
2023-03-11T18:03:06.356Z,44.74
2023-03-11T18:05:33.692Z,44.39
2023-03-11T18:08:01.031Z,44.59
2023-03-11T18:10:28.699Z,44.60
2023-03-11T18:12:56.103Z,44.01
2023-03-11T18:15:24.441Z,44.58
2023-03-11T18:17:52.014Z,44.41
2023-03-11T18:20:19.473Z,44.66
2023-03-11T18:22:47.296Z,44.29
2023-03-11T18:25:15.049Z,44.81
2023-03-11T18:27:42.425Z,43.64
2023-03-11T18:30:11.282Z,43.99
2023-03-11T18:32:38.927Z,45.14
2023-03-11T18:35:06.667Z,45.34
2023-03-11T18:37:34.077Z,45.89
2023-03-11T18:40:01.773Z,45.23
2023-03-11T18:42:29.129Z,45.96
2023-03-11T18:44:56.466Z,45.65
2023-03-11T18:47:24.080Z,45.74
2023-03-11T18:49:51.445Z,45.94
2023-03-11T18:52:18.797Z,46.41
2023-03-11T18:54:46.390Z,46.70
2023-03-11T18:57:13.714Z,46.88
2023-03-11T18:59:41.032Z,46.60
2023-03-11T19:02:10.095Z,46.78
2023-03-11T19:04:37.456Z,46.23
2023-03-11T19:07:04.990Z,47.33
2023-03-11T19:09:32.604Z,47.62
2023-03-11T19:11:59.971Z,47.83
2023-03-11T19:14:27.325Z,46.68
2023-03-11T19:16:54.991Z,46.56
2023-03-11T19:19:22.405Z,47.59
2023-03-11T19:21:49.749Z,48.02
2023-03-11T19:24:17.330Z,47.46
2023-03-11T19:26:46.172Z,47.79
2023-03-11T19:29:14.253Z,48.42
2023-03-11T19:31:43.541Z,48.53
2023-03-11T19:34:11.075Z,48.49
2023-03-11T19:36:39.248Z,48.00
2023-03-11T19:39:07.058Z,48.35
2023-03-11T19:41:34.502Z,48.26
2023-03-11T19:44:04.095Z,47.02
2023-03-11T19:46:34.580Z,47.88
2023-03-11T19:49:02.617Z,48.46
2023-03-11T19:51:38.858Z,48.62
2023-03-11T19:54:16.217Z,49.38
2023-03-11T19:56:43.754Z,48.93
2023-03-11T19:59:11.145Z,49.57
2023-03-11T20:01:38.835Z,49.25
2023-03-11T20:04:06.500Z,50.23
2023-03-11T20:06:34.064Z,50.17
2023-03-11T20:09:01.493Z,50.13
2023-03-11T20:11:29.120Z,49.98
2023-03-11T20:13:56.468Z,50.95
2023-03-11T20:16:23.867Z,51.23
2023-03-11T20:18:51.830Z,51.33
2023-03-11T20:21:19.330Z,51.23
2023-03-11T20:23:48.803Z,51.53
2023-03-11T20:26:17.510Z,51.57
2023-03-11T20:28:45.002Z,51.26
2023-03-11T20:31:22.486Z,51.78
2023-03-11T20:33:50.548Z,52.44
2023-03-11T20:36:21.232Z,50.42
2023-03-11T20:38:49.485Z,52.39
2023-03-11T20:41:17.138Z,53.46
2023-03-11T20:43:44.578Z,52.63
2023-03-11T20:46:12.238Z,53.39
2023-03-11T20:48:39.879Z,52.46
2023-03-11T20:51:09.139Z,54.23
2023-03-11T20:53:36.617Z,54.45
2023-03-11T20:56:11.993Z,54.45
2023-03-11T20:58:39.360Z,52.17
2023-03-11T21:01:20.429Z,53.24
2023-03-11T21:03:47.963Z,55.19
2023-03-11T21:06:20.594Z,54.21
2023-03-11T21:08:47.956Z,55.33
2023-03-11T21:11:15.924Z,55.36
2023-03-11T21:13:43.309Z,55.31
2023-03-11T21:16:10.764Z,55.96
2023-03-11T21:18:38.502Z,55.44
2023-03-11T21:21:08.506Z,55.96
2023-03-11T21:23:35.929Z,56.38
2023-03-11T21:26:04.178Z,56.40
2023-03-11T21:28:31.812Z,56.83
2023-03-11T21:31:00.289Z,56.35
2023-03-11T21:33:28.082Z,56.77
2023-03-11T21:35:56.065Z,55.59
2023-03-11T21:38:23.620Z,56.14
2023-03-11T21:40:51.421Z,56.12
2023-03-11T21:43:19.453Z,57.08
2023-03-11T21:45:47.074Z,56.39
2023-03-11T21:48:15.393Z,56.42
2023-03-11T21:50:42.832Z,56.51
2023-03-11T21:53:10.238Z,57.25
2023-03-11T21:55:37.976Z,56.17
2023-03-11T21:58:05.283Z,56.73
2023-03-11T22:00:32.686Z,56.64
2023-03-11T22:03:00.605Z,55.77
2023-03-11T22:05:28.235Z,55.21
2023-03-11T22:07:55.637Z,55.92
2023-03-11T22:10:23.506Z,56.55
2023-03-11T22:12:50.827Z,56.64
2023-03-11T22:15:18.210Z,57.64
2023-03-11T22:17:46.005Z,57.91
2023-03-11T22:20:13.538Z,59.05
2023-03-11T22:22:41.066Z,58.96
2023-03-11T22:25:08.867Z,59.10
2023-03-11T22:27:36.207Z,59.47
2023-03-11T22:30:03.840Z,58.90
2023-03-11T22:32:31.642Z,59.60
2023-03-11T22:34:58.976Z,59.87
2023-03-11T22:37:26.449Z,60.38
2023-03-11T22:39:54.064Z,59.53
2023-03-11T22:42:21.391Z,60.34
2023-03-11T22:44:48.716Z,59.85
2023-03-11T22:47:16.330Z,60.11
2023-03-11T22:49:43.684Z,59.26
2023-03-11T22:52:11.017Z,58.67
2023-03-11T22:54:38.722Z,58.95
2023-03-11T22:57:06.127Z,59.68
2023-03-11T22:59:33.473Z,59.00
2023-03-11T23:02:01.100Z,57.34
2023-03-11T23:04:28.430Z,59.05
2023-03-11T23:06:55.764Z,58.43
2023-03-11T23:09:23.549Z,60.39
2023-03-11T23:11:51.247Z,60.52
2023-03-11T23:14:20.613Z,60.98
2023-03-11T23:16:51.322Z,60.56
2023-03-11T23:19:18.718Z,58.95
2023-03-11T23:21:46.013Z,61.10
2023-03-11T23:24:13.580Z,60.53
2023-03-11T23:26:40.914Z,60.80
2023-03-11T23:29:08.286Z,60.88
2023-03-11T23:31:36.431Z,59.69
2023-03-11T23:34:06.474Z,59.75
2023-03-11T23:36:33.818Z,60.98
2023-03-11T23:39:01.434Z,60.31
2023-03-11T23:41:29.191Z,60.62
2023-03-11T23:43:56.556Z,60.06
2023-03-11T23:46:24.212Z,60.58
2023-03-11T23:48:51.605Z,60.67
2023-03-11T23:51:18.914Z,60.58
2023-03-11T23:53:46.524Z,60.76
2023-03-11T23:56:16.871Z,61.62
2023-03-11T23:58:44.266Z,60.47
